Time;durP1;ratioP1;P1;durP2;ratioP2;P2;SDS_P1;SDS_P2;PMS_P1;PMS_P2;Temp;Humidity;BMP_temperature;BMP_pressure;BME280_temperature;BME280_humidity;BME280_pressure;Samples;Min_cycle;Max_cycle;Signal;HPM_P1;HPM_P2
2024/04/25 00:00:24;;;;;;;6.72;2.72;;;5.50;99.90;;;;;;5195034;27;20004;-60
2024/04/25 00:02:53;;;;;;;4.00;3.20;;;5.50;99.90;;;;;;5192155;27;20019;-58
2024/04/25 00:05:21;;;;;;;4.85;3.10;;;5.40;99.90;;;;;;5207049;27;20019;-60
2024/04/25 00:07:48;;;;;;;4.82;2.90;;;5.50;99.90;;;;;;5202041;27;20014;-62
2024/04/25 00:10:15;;;;;;;8.00;3.50;;;5.40;99.90;;;;;;5197274;27;20022;-59
2024/04/25 00:12:42;;;;;;;5.35;3.58;;;5.40;99.90;;;;;;5202710;27;20000;-58
2024/04/25 00:15:09;;;;;;;5.57;3.30;;;5.50;99.90;;;;;;5200024;27;20020;-60
2024/04/25 00:17:36;;;;;;;3.35;2.78;;;5.40;99.90;;;;;;5203877;27;20023;-61
2024/04/25 00:20:04;;;;;;;6.18;3.08;;;5.50;99.90;;;;;;5197664;27;20044;-59
2024/04/25 00:22:31;;;;;;;4.30;2.90;;;5.40;99.90;;;;;;5196879;27;20053;-60
2024/04/25 00:24:58;;;;;;;7.20;3.80;;;5.50;99.90;;;;;;5199219;27;20004;-60
2024/04/25 00:27:25;;;;;;;6.00;3.63;;;5.40;99.90;;;;;;5199475;27;20082;-60
2024/04/25 00:29:51;;;;;;;7.38;3.67;;;5.40;99.90;;;;;;5202231;27;20015;-59
2024/04/25 00:32:18;;;;;;;8.45;3.95;;;5.30;99.90;;;;;;5206951;27;20022;-60
2024/04/25 00:34:45;;;;;;;6.45;4.07;;;5.30;99.90;;;;;;5199049;27;20004;-59
2024/04/25 00:37:12;;;;;;;4.18;3.17;;;5.30;99.90;;;;;;5203887;27;20008;-60
2024/04/25 00:39:39;;;;;;;7.13;4.00;;;5.30;99.90;;;;;;5199717;27;20099;-62
2024/04/25 00:42:06;;;;;;;7.43;3.58;;;5.30;99.90;;;;;;5207162;27;20332;-62
2024/04/25 00:44:32;;;;;;;7.03;3.53;;;5.30;99.90;;;;;;5202298;27;20004;-59
2024/04/25 00:47:00;;;;;;;7.28;3.60;;;5.30;99.90;;;;;;5199746;27;20013;-62
2024/04/25 00:49:27;;;;;;;7.88;3.35;;;5.30;99.90;;;;;;5196573;27;20008;-60
2024/04/25 00:51:54;;;;;;;5.80;3.70;;;5.30;99.90;;;;;;5204185;27;20010;-61
2024/04/25 00:54:21;;;;;;;5.60;3.40;;;5.40;99.90;;;;;;5198631;27;20008;-61
2024/04/25 00:56:48;;;;;;;8.60;3.90;;;5.40;99.90;;;;;;5196136;27;20461;-60
2024/04/25 00:59:17;;;;;;;8.02;4.05;;;5.40;99.90;;;;;;5198116;27;20342;-59
2024/04/25 01:01:45;;;;;;;7.10;3.83;;;5.40;99.90;;;;;;5202435;27;20055;-61
2024/04/25 01:04:13;;;;;;;8.35;3.75;;;5.40;99.90;;;;;;5203698;27;20044;-62
2024/04/25 01:06:41;;;;;;;7.25;3.88;;;5.40;99.90;;;;;;5199314;27;20000;-62
2024/04/25 01:09:07;;;;;;;7.97;3.83;;;5.30;99.90;;;;;;5195962;27;20095;-62
2024/04/25 01:11:34;;;;;;;6.93;4.03;;;5.30;99.90;;;;;;5203972;27;20019;-61
2024/04/25 01:14:01;;;;;;;7.07;4.20;;;5.30;99.90;;;;;;5201029;27;20019;-58
2024/04/25 01:16:28;;;;;;;7.18;4.15;;;5.20;99.90;;;;;;5199636;27;20079;-62
2024/04/25 01:18:55;;;;;;;6.38;3.92;;;5.20;99.90;;;;;;5194616;27;20039;-61
2024/04/25 01:21:22;;;;;;;8.10;4.43;;;5.30;99.90;;;;;;5203141;27;20003;-59
2024/04/25 01:23:52;;;;;;;9.80;4.40;;;5.30;99.90;;;;;;5200908;27;20607;-62
2024/04/25 01:26:20;;;;;;;7.05;3.65;;;5.30;99.90;;;;;;5200445;27;19999;-63
2024/04/25 01:28:48;;;;;;;6.45;3.65;;;5.30;99.90;;;;;;5195344;27;20023;-62
2024/04/25 01:31:15;;;;;;;5.20;4.03;;;5.20;99.90;;;;;;5198014;27;20007;-61
2024/04/25 01:33:43;;;;;;;5.07;3.97;;;5.20;99.90;;;;;;5198841;27;20490;-60
2024/04/25 01:36:10;;;;;;;6.88;4.45;;;5.20;99.90;;;;;;5199381;27;20000;-60
2024/04/25 01:38:37;;;;;;;6.78;3.83;;;5.20;99.90;;;;;;5206295;27;20008;-61
2024/04/25 01:41:04;;;;;;;5.75;4.13;;;5.20;99.90;;;;;;5202144;27;20019;-60
2024/04/25 01:43:31;;;;;;;5.90;4.13;;;5.20;99.90;;;;;;5202331;27;20015;-61
2024/04/25 01:45:58;;;;;;;10.57;4.90;;;5.20;99.90;;;;;;5198650;27;20326;-62
2024/04/25 01:48:25;;;;;;;8.27;4.72;;;5.20;99.90;;;;;;5198811;27;20004;-61
2024/04/25 01:50:52;;;;;;;6.47;4.00;;;5.20;99.90;;;;;;5202847;27;20004;-60
2024/04/25 01:53:19;;;;;;;10.02;4.45;;;5.30;99.90;;;;;;5201196;27;20083;-61
2024/04/25 01:55:46;;;;;;;7.88;4.80;;;5.20;99.90;;;;;;5193594;27;20453;-57
2024/04/25 01:58:13;;;;;;;6.20;4.25;;;5.10;99.90;;;;;;5195624;27;20536;-60
2024/04/25 02:00:40;;;;;;;8.82;4.30;;;5.10;99.90;;;;;;5202581;27;20004;-59
2024/04/25 02:03:07;;;;;;;9.48;5.10;;;5.20;99.90;;;;;;5198596;27;20004;-61
2024/04/25 02:05:33;;;;;;;6.68;4.53;;;5.10;99.90;;;;;;5202864;27;20008;-62
2024/04/25 02:08:00;;;;;;;10.40;5.15;;;5.10;99.90;;;;;;5195966;27;20011;-58
2024/04/25 02:10:27;;;;;;;10.13;4.55;;;5.10;99.90;;;;;;5209755;27;19999;-62
2024/04/25 02:12:54;;;;;;;8.52;4.90;;;5.10;99.90;;;;;;5201537;27;20019;-62
2024/04/25 02:15:21;;;;;;;8.75;4.55;;;5.00;99.90;;;;;;5196726;27;20011;-60
2024/04/25 02:17:47;;;;;;;8.90;5.05;;;5.00;99.90;;;;;;5195010;27;20425;-58
2024/04/25 02:25:46;;;;;;;8.77;5.40;;;5.00;99.90;;;;;;5198134;27;20019;-58
2024/04/25 02:28:13;;;;;;;8.65;4.82;;;5.00;99.90;;;;;;5199583;27;19999;-58
2024/04/25 02:30:39;;;;;;;6.85;4.70;;;5.00;99.90;;;;;;5200961;27;20348;-59
2024/04/25 02:33:06;;;;;;;7.10;5.00;;;5.00;99.90;;;;;;5195621;27;20004;-62
2024/04/25 02:35:33;;;;;;;14.85;5.85;;;5.00;99.90;;;;;;5200354;27;20087;-60
2024/04/25 02:38:00;;;;;;;8.07;4.53;;;5.00;99.90;;;;;;5200088;27;20478;-57
2024/04/25 02:40:27;;;;;;;11.63;5.30;;;5.00;99.90;;;;;;5231241;27;20014;-58
2024/04/25 02:42:54;;;;;;;8.40;5.10;;;5.00;99.90;;;;;;5227931;27;20011;-58
2024/04/25 02:45:20;;;;;;;11.05;5.88;;;5.00;99.90;;;;;;5196626;27;20408;-60
2024/04/25 02:47:47;;;;;;;10.15;5.80;;;4.90;99.90;;;;;;5199168;27;20014;-60
2024/04/25 02:50:14;;;;;;;12.77;5.35;;;4.90;99.90;;;;;;5202928;27;20015;-60
2024/04/25 02:52:41;;;;;;;9.30;5.15;;;4.90;99.90;;;;;;5203915;27;20008;-59
2024/04/25 02:55:08;;;;;;;10.07;5.40;;;4.90;99.90;;;;;;5198638;27;20005;-59
2024/04/25 02:57:35;;;;;;;7.47;5.13;;;4.90;99.90;;;;;;5200654;27;20018;-56
2024/04/25 03:00:02;;;;;;;11.63;5.00;;;4.90;99.90;;;;;;5195994;27;20019;-58
2024/04/25 03:02:28;;;;;;;9.77;5.03;;;4.90;99.90;;;;;;5219212;27;20463;-58
2024/04/25 03:04:55;;;;;;;10.02;5.47;;;4.90;99.90;;;;;;5200841;27;20377;-61
2024/04/25 03:07:22;;;;;;;8.52;5.18;;;4.90;99.90;;;;;;5202132;27;20012;-61
2024/04/25 03:09:49;;;;;;;6.10;4.47;;;4.90;99.90;;;;;;5196171;27;20016;-62
2024/04/25 03:12:16;;;;;;;7.82;4.93;;;4.90;99.90;;;;;;5202292;27;20000;-60
2024/04/25 03:14:43;;;;;;;8.63;4.78;;;4.90;99.90;;;;;;5201400;27;20018;-60
2024/04/25 03:17:09;;;;;;;8.40;5.43;;;4.90;99.90;;;;;;5206515;27;20016;-60
2024/04/25 03:19:36;;;;;;;7.78;4.70;;;4.90;99.90;;;;;;5202524;27;20078;-62
2024/04/25 03:22:03;;;;;;;6.10;4.57;;;5.00;99.90;;;;;;5202148;27;20012;-61
2024/04/25 03:24:30;;;;;;;7.38;5.32;;;5.00;99.90;;;;;;5202846;27;20007;-61
2024/04/25 03:26:57;;;;;;;8.50;5.22;;;5.00;99.90;;;;;;5200495;27;20012;-60
2024/04/25 03:29:24;;;;;;;8.50;5.00;;;5.00;99.90;;;;;;5202967;27;20476;-61
2024/04/25 03:31:50;;;;;;;7.60;4.65;;;4.90;99.90;;;;;;5201945;27;20457;-62
2024/04/25 03:34:17;;;;;;;9.18;5.10;;;4.90;99.90;;;;;;5208533;27;20490;-58
2024/04/25 03:36:44;;;;;;;7.00;5.25;;;4.90;99.90;;;;;;5194542;27;20015;-60
2024/04/25 03:39:12;;;;;;;8.43;4.57;;;4.90;99.90;;;;;;5233074;27;20401;-60
2024/04/25 03:41:40;;;;;;;12.75;5.07;;;4.90;99.90;;;;;;5203528;27;20322;-60
2024/04/25 03:44:07;;;;;;;13.30;5.53;;;4.90;99.90;;;;;;5200505;27;20015;-61
2024/04/25 03:46:33;;;;;;;7.85;4.53;;;4.90;99.90;;;;;;5203714;27;20056;-60
2024/04/25 03:49:02;;;;;;;8.75;4.88;;;4.90;99.90;;;;;;5200457;27;20023;-58
2024/04/25 03:51:29;;;;;;;6.93;4.60;;;4.90;99.90;;;;;;5203481;27;20004;-59
2024/04/25 03:53:56;;;;;;;8.27;4.18;;;4.90;99.90;;;;;;5202510;27;20060;-62
2024/04/25 03:56:23;;;;;;;10.30;4.90;;;4.90;99.90;;;;;;5202329;27;20004;-61
2024/04/25 03:58:50;;;;;;;8.35;4.47;;;4.90;99.90;;;;;;5202776;27;20018;-61
2024/04/25 04:01:17;;;;;;;8.32;4.38;;;4.90;99.90;;;;;;5201928;27;20479;-61
2024/04/25 04:03:44;;;;;;;8.43;4.55;;;4.90;99.90;;;;;;5201811;27;20023;-59
2024/04/25 04:06:10;;;;;;;10.02;4.95;;;4.90;99.90;;;;;;5196871;27;20026;-61
2024/04/25 04:08:37;;;;;;;13.57;5.18;;;4.90;99.90;;;;;;5204981;27;20003;-62
2024/04/25 04:11:04;;;;;;;6.75;4.78;;;4.90;99.90;;;;;;5199997;27;20519;-58
2024/04/25 04:13:35;;;;;;;6.13;4.20;;;4.90;99.90;;;;;;5201486;27;20012;-61
2024/04/25 04:16:03;;;;;;;7.55;3.75;;;4.90;99.90;;;;;;5198934;27;20008;-62
2024/04/25 04:18:30;;;;;;;7.75;4.57;;;4.80;99.90;;;;;;5199690;27;20008;-61
2024/04/25 04:20:56;;;;;;;9.63;4.85;;;4.90;99.90;;;;;;5197480;27;20024;-60
2024/04/25 04:23:23;;;;;;;10.05;5.35;;;4.90;99.90;;;;;;5228771;27;20019;-61
2024/04/25 04:25:50;;;;;;;7.60;4.40;;;4.90;99.90;;;;;;5195330;27;20026;-57
2024/04/25 04:28:17;;;;;;;5.60;3.72;;;4.90;99.90;;;;;;5201736;27;20015;-61
2024/04/25 04:30:44;;;;;;;8.50;5.63;;;4.90;99.90;;;;;;5197565;27;20004;-61
2024/04/25 04:33:11;;;;;;;9.27;4.22;;;4.90;99.90;;;;;;5202526;27;20004;-62
2024/04/25 04:35:38;;;;;;;7.70;3.83;;;4.80;99.90;;;;;;5207776;27;20012;-59
2024/04/25 04:38:05;;;;;;;8.57;3.97;;;4.90;99.90;;;;;;5204410;27;20015;-58
2024/04/25 04:40:31;;;;;;;10.23;3.80;;;4.90;99.90;;;;;;5211956;27;21697;-60
2024/04/25 04:42:58;;;;;;;7.78;3.53;;;4.90;99.90;;;;;;5207479;27;20004;-62
2024/04/25 04:45:25;;;;;;;7.53;3.60;;;4.90;99.90;;;;;;5203709;27;20008;-58
2024/04/25 04:47:52;;;;;;;8.77;4.07;;;4.90;99.90;;;;;;5232066;27;20000;-61
2024/04/25 04:50:19;;;;;;;5.60;3.45;;;5.00;99.90;;;;;;5205201;27;20011;-62
2024/04/25 04:52:46;;;;;;;5.63;3.60;;;5.00;99.90;;;;;;5200575;27;20004;-61
2024/04/25 04:55:13;;;;;;;7.35;3.75;;;5.00;99.90;;;;;;5202858;27;20022;-59
2024/04/25 04:57:40;;;;;;;7.97;3.67;;;5.10;99.90;;;;;;5204438;27;20018;-62
2024/04/25 05:00:08;;;;;;;8.95;3.80;;;5.10;99.90;;;;;;5199843;27;20028;-60
2024/04/25 05:02:35;;;;;;;8.93;4.13;;;5.20;99.90;;;;;;5205496;27;20023;-62
2024/04/25 05:05:02;;;;;;;7.65;4.80;;;5.20;99.90;;;;;;5196740;27;20055;-61
2024/04/25 05:07:29;;;;;;;11.20;4.63;;;5.20;99.90;;;;;;5201635;27;20377;-61
2024/04/25 05:09:56;;;;;;;5.22;3.45;;;5.30;99.90;;;;;;5202885;27;20008;-61
2024/04/25 05:12:23;;;;;;;7.50;4.38;;;5.30;99.90;;;;;;5201527;27;20000;-59
2024/04/25 05:14:53;;;;;;;9.65;4.15;;;5.30;99.90;;;;;;5201722;27;20020;-61
2024/04/25 05:17:20;;;;;;;8.52;4.72;;;5.40;99.90;;;;;;5199339;27;20075;-62
2024/04/25 05:19:47;;;;;;;9.32;4.90;;;5.40;99.90;;;;;;5202905;27;20008;-60
2024/04/25 05:22:14;;;;;;;7.32;5.38;;;5.50;99.90;;;;;;5201596;27;20094;-60
2024/04/25 05:24:42;;;;;;;10.70;5.13;;;5.50;99.90;;;;;;5199569;27;20043;-61
2024/04/25 05:27:11;;;;;;;4.95;3.83;;;5.50;99.90;;;;;;5201789;27;20461;-61
2024/04/25 05:29:38;;;;;;;6.85;3.85;;;5.60;99.90;;;;;;5195489;27;20004;-61
2024/04/25 05:32:06;;;;;;;9.65;4.40;;;5.60;99.90;;;;;;5203861;27;20015;-62
2024/04/25 05:34:33;;;;;;;8.27;3.42;;;5.70;99.90;;;;;;5203672;27;20660;-61
2024/04/25 05:36:59;;;;;;;12.98;4.93;;;5.70;99.90;;;;;;5203324;27;20015;-61
2024/04/25 05:39:26;;;;;;;9.18;3.83;;;5.70;99.90;;;;;;5203862;27;20008;-60
2024/04/25 05:41:53;;;;;;;10.05;4.00;;;5.80;99.90;;;;;;5203529;27;20008;-61
2024/04/25 05:44:20;;;;;;;9.02;4.30;;;5.80;99.90;;;;;;5197198;27;20008;-60
2024/04/25 05:46:47;;;;;;;4.95;3.95;;;5.90;99.90;;;;;;5192734;27;20022;-61
2024/04/25 05:49:13;;;;;;;6.80;3.85;;;6.00;99.90;;;;;;5201472;27;20019;-62
2024/04/25 05:51:40;;;;;;;9.68;4.28;;;6.10;99.90;;;;;;5205670;27;20019;-63
2024/04/25 05:54:08;;;;;;;9.35;3.72;;;6.20;99.90;;;;;;5199381;27;20594;-60
2024/04/25 05:56:35;;;;;;;8.55;3.67;;;6.40;99.90;;;;;;5202071;27;20109;-60
2024/04/25 05:59:01;;;;;;;7.22;4.18;;;6.50;99.90;;;;;;5201279;27;20075;-59
2024/04/25 06:01:28;;;;;;;10.30;4.28;;;6.70;99.90;;;;;;5198356;27;20846;-60
2024/04/25 06:03:55;;;;;;;4.70;3.63;;;6.80;99.90;;;;;;5205279;27;20004;-59
2024/04/25 06:06:22;;;;;;;10.18;3.70;;;6.90;99.90;;;;;;5201344;27;20087;-59
2024/04/25 06:08:49;;;;;;;9.45;3.60;;;7.10;99.90;;;;;;5229474;27;20023;-60
2024/04/25 06:11:16;;;;;;;6.63;3.10;;;7.20;99.90;;;;;;5203491;27;20004;-61
2024/04/25 06:13:43;;;;;;;4.80;3.08;;;7.30;99.90;;;;;;5201318;27;20023;-60
2024/04/25 06:16:10;;;;;;;7.18;3.25;;;7.30;99.90;;;;;;5195392;27;20015;-58
2024/04/25 06:18:36;;;;;;;7.90;3.30;;;7.50;99.90;;;;;;5203286;27;20345;-58
2024/04/25 06:21:04;;;;;;;7.10;3.50;;;7.50;99.90;;;;;;5196380;27;20000;-59
2024/04/25 06:23:32;;;;;;;6.10;3.72;;;7.70;99.90;;;;;;5203965;27;20019;-60
2024/04/25 06:25:59;;;;;;;8.38;3.33;;;7.80;99.90;;;;;;5207598;27;20004;-58
2024/04/25 06:28:26;;;;;;;7.85;3.53;;;8.20;99.90;;;;;;5199983;27;19999;-60
2024/04/25 06:30:57;;;;;;;4.43;3.13;;;8.60;99.90;;;;;;5205659;27;20464;-58
2024/04/25 06:33:24;;;;;;;9.32;4.35;;;8.90;99.90;;;;;;5200127;27;20582;-60
2024/04/25 06:35:51;;;;;;;9.98;3.83;;;9.10;99.90;;;;;;5200467;27;20003;-61
2024/04/25 06:38:18;;;;;;;11.23;3.60;;;9.10;99.90;;;;;;5202914;27;20019;-60
2024/04/25 06:40:45;;;;;;;6.47;3.40;;;9.30;99.90;;;;;;5203569;27;20025;-62
2024/04/25 06:43:13;;;;;;;10.48;4.25;;;9.10;99.90;;;;;;5199890;27;20011;-60
2024/04/25 06:45:40;;;;;;;6.85;3.10;;;8.90;99.90;;;;;;5202139;27;20000;-60
2024/04/25 06:48:11;;;;;;;6.88;3.72;;;8.70;99.90;;;;;;5209010;27;20043;-63
2024/04/25 06:50:44;;;;;;;7.85;3.53;;;8.20;99.90;;;;;;5202495;27;20018;-58
2024/04/25 06:53:12;;;;;;;10.70;3.60;;;7.80;99.90;;;;;;5204143;27;20420;-60
2024/04/25 06:55:39;;;;;;;7.65;3.38;;;7.70;99.90;;;;;;5206801;27;20040;-58
2024/04/25 06:58:06;;;;;;;6.05;3.30;;;7.50;99.90;;;;;;5203782;27;20012;-62
2024/04/25 07:00:33;;;;;;;13.02;3.95;;;7.40;99.90;;;;;;5205700;27;20351;-61
2024/04/25 07:03:00;;;;;;;9.27;3.97;;;7.50;99.90;;;;;;5207016;27;20417;-60
2024/04/25 07:05:27;;;;;;;7.30;3.25;;;7.50;99.90;;;;;;5204206;27;20345;-58
2024/04/25 07:07:56;;;;;;;8.65;4.10;;;7.60;99.90;;;;;;5203784;27;20020;-57
2024/04/25 07:10:23;;;;;;;8.07;4.10;;;7.60;99.90;;;;;;5202610;27;20008;-62
2024/04/25 07:12:50;;;;;;;8.45;4.07;;;7.50;99.90;;;;;;5206086;27;20014;-62
2024/04/25 07:15:21;;;;;;;7.88;3.67;;;7.40;99.90;;;;;;5203664;27;20000;-61
2024/04/25 07:17:48;;;;;;;9.30;3.88;;;7.30;99.90;;;;;;5205145;27;20019;-61
2024/04/25 07:20:15;;;;;;;6.78;4.05;;;7.40;99.90;;;;;;5204320;27;20497;-61
2024/04/25 07:22:42;;;;;;;5.93;3.90;;;7.60;99.90;;;;;;5201241;27;20030;-62
2024/04/25 07:25:11;;;;;;;9.65;3.85;;;7.40;99.90;;;;;;5210855;27;20476;-62
2024/04/25 07:27:42;;;;;;;7.55;3.70;;;7.30;99.90;;;;;;5208338;27;20008;-63
2024/04/25 07:30:10;;;;;;;8.02;4.05;;;7.20;99.90;;;;;;5204341;27;20019;-62
2024/04/25 07:32:37;;;;;;;8.18;4.00;;;7.30;99.90;;;;;;5203905;27;20007;-63
2024/04/25 07:35:05;;;;;;;6.72;3.65;;;7.60;99.90;;;;;;5207829;27;20007;-61
2024/04/25 07:37:36;;;;;;;8.07;3.95;;;8.00;99.90;;;;;;5212496;27;20019;-59
2024/04/25 07:40:04;;;;;;;7.00;3.70;;;8.20;99.90;;;;;;5205979;27;20012;-62
2024/04/25 07:42:31;;;;;;;6.18;3.83;;;8.40;99.90;;;;;;5200918;27;20019;-61
2024/04/25 07:45:01;;;;;;;7.18;3.67;;;8.30;99.90;;;;;;5203291;27;20000;-62
2024/04/25 07:47:28;;;;;;;11.45;4.50;;;8.40;99.90;;;;;;5203142;27;20346;-63
2024/04/25 07:49:55;;;;;;;11.52;4.55;;;8.40;99.90;;;;;;5205917;27;20011;-59
2024/04/25 07:52:22;;;;;;;8.88;3.80;;;8.50;99.90;;;;;;5201456;27;20016;-62
2024/04/25 07:54:52;;;;;;;;;;;8.40;99.90;;;;;;5206023;27;20077;-62
2024/04/25 07:57:19;;;;;;;8.98;3.90;;;8.50;99.90;;;;;;5201902;27;20634;-61
2024/04/25 07:59:46;;;;;;;8.40;4.78;;;8.80;99.90;;;;;;5205575;27;20071;-63
2024/04/25 08:02:13;;;;;;;7.15;3.65;;;8.90;99.90;;;;;;5199448;27;20020;-63
2024/04/25 08:04:40;;;;;;;8.82;3.78;;;9.00;99.90;;;;;;5204304;27;20015;-62
2024/04/25 08:07:07;;;;;;;9.05;4.22;;;9.10;99.90;;;;;;5202658;27;20004;-63
2024/04/25 08:09:34;;;;;;;12.60;4.15;;;9.20;99.90;;;;;;5203151;27;20468;-62
2024/04/25 08:12:01;;;;;;;8.80;4.75;;;9.00;99.90;;;;;;5202452;27;20022;-62
2024/04/25 08:14:28;;;;;;;9.63;4.18;;;9.00;99.90;;;;;;5200912;27;20035;-60
2024/04/25 08:16:55;;;;;;;6.47;4.18;;;8.90;99.90;;;;;;5201937;27;20011;-62
2024/04/25 08:19:22;;;;;;;8.27;4.05;;;8.80;99.90;;;;;;5199427;27;20004;-62
2024/04/25 08:21:49;;;;;;;7.97;4.43;;;8.70;99.90;;;;;;5201944;27;20000;-61
2024/04/25 08:24:17;;;;;;;8.43;4.40;;;8.70;99.90;;;;;;5207395;27;20029;-62
2024/04/25 08:26:44;;;;;;;8.95;4.60;;;8.80;99.90;;;;;;5203409;27;20010;-61
2024/04/25 08:29:11;;;;;;;9.27;4.63;;;8.90;99.90;;;;;;5198234;27;20026;-63
2024/04/25 08:31:38;;;;;;;8.55;3.28;;;9.20;99.90;;;;;;5199937;27;20074;-63
2024/04/25 08:34:05;;;;;;;6.15;3.08;;;9.40;99.90;;;;;;5201670;27;20031;-61
2024/04/25 08:36:32;;;;;;;7.63;3.30;;;9.60;99.90;;;;;;5200349;27;20011;-60
2024/04/25 08:38:59;;;;;;;10.02;3.80;;;9.60;99.90;;;;;;5205368;27;20004;-61
2024/04/25 08:41:26;;;;;;;7.72;3.40;;;9.50;99.90;;;;;;5202655;27;20012;-62
2024/04/25 08:43:52;;;;;;;7.63;3.70;;;9.30;99.90;;;;;;5203080;27;20008;-63
2024/04/25 08:46:23;;;;;;;8.07;3.65;;;9.30;99.90;;;;;;5201566;27;20003;-61
2024/04/25 08:48:51;;;;;;;11.82;4.75;;;9.30;99.90;;;;;;5203465;27;20015;-62
2024/04/25 08:51:25;;;;;;;10.35;4.18;;;9.30;99.90;;;;;;5229454;27;20018;-61
2024/04/25 08:53:59;;;;;;;7.38;3.05;;;9.30;99.90;;;;;;5205785;27;20019;-62
2024/04/25 08:56:29;;;;;;;8.18;3.58;;;9.20;99.90;;;;;;5203428;27;20402;-63
2024/04/25 08:58:56;;;;;;;11.57;4.20;;;9.40;99.90;;;;;;5204540;27;20012;-61
2024/04/25 09:01:25;;;;;;;9.57;3.83;;;9.70;99.90;;;;;;5201961;27;20000;-63
2024/04/25 09:03:54;;;;;;;7.55;4.00;;;9.90;99.90;;;;;;5203545;27;20035;-62
2024/04/25 09:06:24;;;;;;;8.30;4.00;;;9.90;99.90;;;;;;5201393;27;20441;-63
2024/04/25 09:08:54;;;;;;;6.00;3.78;;;10.00;99.90;;;;;;5229213;27;20018;-62
2024/04/25 09:11:22;;;;;;;8.48;3.67;;;10.30;99.90;;;;;;5201717;27;20331;-63
2024/04/25 09:13:56;;;;;;;9.20;3.65;;;10.60;99.90;;;;;;5210364;27;20012;-63
2024/04/25 09:16:24;;;;;;;7.80;3.58;;;10.70;99.90;;;;;;5199774;27;20031;-63
2024/04/25 09:18:52;;;;;;;7.97;3.25;;;10.70;99.90;;;;;;5207878;27;20026;-63
2024/04/25 09:21:19;;;;;;;4.88;4.13;;;10.70;99.90;;;;;;5201511;27;20000;-61
2024/04/25 09:23:46;;;;;;;9.48;3.78;;;10.80;99.90;;;;;;5206383;27;20074;-61
2024/04/25 09:26:13;;;;;;;6.10;3.55;;;10.90;99.90;;;;;;5204502;27;20075;-63
2024/04/25 09:28:41;;;;;;;6.32;3.08;;;11.00;99.90;;;;;;5204864;27;20350;-62
2024/04/25 09:31:09;;;;;;;6.65;3.55;;;10.90;99.90;;;;;;5203756;27;20012;-62
2024/04/25 09:33:36;;;;;;;5.88;2.92;;;11.30;99.90;;;;;;5209887;27;20085;-62
2024/04/25 09:36:03;;;;;;;6.57;3.15;;;11.50;99.90;;;;;;5203767;27;20471;-63
2024/04/25 09:38:31;;;;;;;8.40;3.05;;;11.50;99.90;;;;;;5214840;27;20008;-61
2024/04/25 09:40:59;;;;;;;7.30;3.17;;;11.80;99.90;;;;;;5203286;27;20004;-62
2024/04/25 09:43:27;;;;;;;6.68;3.50;;;12.00;99.90;;;;;;5200708;27;20083;-61
2024/04/25 09:45:58;;;;;;;5.88;2.38;;;12.40;99.90;;;;;;5201702;27;20004;-61
2024/04/25 09:48:31;;;;;;;5.88;2.15;;;12.80;99.90;;;;;;5206733;27;20095;-62
2024/04/25 09:51:17;;;;;;;5.00;2.17;;;12.70;99.90;;;;;;5202860;27;20067;-62
2024/04/25 09:53:58;;;;;;;4.70;2.90;;;13.00;99.90;;;;;;5209955;27;20027;-61
2024/04/25 09:56:28;;;;;;;7.63;2.30;;;13.10;99.90;;;;;;5202173;27;20004;-62
2024/04/25 09:59:33;;;;;;;5.00;1.88;;;13.00;99.90;;;;;;5198544;27;20480;-63
2024/04/25 10:02:01;;;;;;;6.38;2.10;;;13.20;99.90;;;;;;5202330;27;20008;-60
2024/04/25 10:04:30;;;;;;;2.78;1.58;;;13.40;99.90;;;;;;5203360;27;20398;-62
2024/04/25 10:07:02;;;;;;;3.72;1.70;;;13.30;99.90;;;;;;5203415;27;20011;-63
2024/04/25 10:09:30;;;;;;;7.35;2.15;;;13.10;99.90;;;;;;5204083;27;20077;-63
2024/04/25 10:11:58;;;;;;;6.70;1.85;;;13.20;99.90;;;;;;5202234;27;20469;-62
2024/04/25 10:14:28;;;;;;;7.80;1.90;;;13.00;99.90;;;;;;5204174;27;20007;-63
2024/04/25 10:16:55;;;;;;;7.90;2.00;;;12.90;99.90;;;;;;5204908;27;20477;-62
2024/04/25 10:19:40;;;;;;;9.23;2.53;;;12.50;99.90;;;;;;5208314;27;21776;-62
2024/04/25 10:22:07;;;;;;;4.32;1.52;;;12.30;99.90;;;;;;5201086;27;20004;-63
2024/04/25 10:24:44;;;;;;;3.65;1.92;;;12.40;99.90;;;;;;5208778;27;20003;-61
2024/04/25 10:27:14;;;;;;;3.50;1.98;;;12.60;99.90;;;;;;5201853;27;20055;-61
2024/04/25 10:30:09;;;;;;;8.57;2.05;;;12.70;99.90;;;;;;5202096;27;20530;-62
2024/04/25 10:32:36;;;;;;;5.45;2.33;;;13.10;99.90;;;;;;5202807;27;20011;-62
2024/04/25 10:35:04;;;;;;;4.32;2.08;;;13.30;99.90;;;;;;5202949;27;20049;-60
2024/04/25 10:37:37;;;;;;;3.67;2.17;;;13.40;99.90;;;;;;5208788;27;20021;-60
2024/04/25 10:40:11;;;;;;;8.50;2.50;;;13.50;99.90;;;;;;5206934;27;20015;-61
2024/04/25 10:42:38;;;;;;;5.18;1.80;;;13.50;99.90;;;;;;5202669;27;20019;-60
2024/04/25 10:45:05;;;;;;;4.82;1.90;;;13.30;99.90;;;;;;5201384;27;20019;-61
2024/04/25 10:47:33;;;;;;;4.05;1.65;;;12.90;99.90;;;;;;5201702;27;20008;-60
2024/04/25 10:50:01;;;;;;;4.60;2.22;;;12.80;99.90;;;;;;5205529;27;20182;-62
2024/04/25 10:52:28;;;;;;;10.93;2.35;;;12.50;99.90;;;;;;5205644;27;20333;-62
2024/04/25 10:54:55;;;;;;;5.32;2.40;;;12.50;99.90;;;;;;5209049;27;20075;-62
2024/04/25 10:57:22;;;;;;;6.18;2.30;;;12.30;99.90;;;;;;5202420;27;20449;-62
2024/04/25 10:59:56;;;;;;;5.18;2.38;;;12.00;99.90;;;;;;5206037;27;20628;-61
2024/04/25 11:02:33;;;;;;;7.78;2.38;;;11.70;99.90;;;;;;5204151;27;20011;-63
2024/04/25 11:05:00;;;;;;;5.53;2.22;;;11.60;99.90;;;;;;5207246;27;20015;-61
2024/04/25 11:07:27;;;;;;;9.68;2.78;;;11.40;99.90;;;;;;5202553;27;20008;-58
2024/04/25 11:09:54;;;;;;;5.50;2.20;;;11.20;99.90;;;;;;5206983;27;20010;-60
2024/04/25 11:12:22;;;;;;;7.47;2.22;;;11.10;99.90;;;;;;5203713;27;20121;-58
2024/04/25 11:14:49;;;;;;;7.35;2.47;;;10.90;99.90;;;;;;5203119;27;20008;-58
2024/04/25 11:17:16;;;;;;;3.92;1.88;;;10.80;99.90;;;;;;5202485;27;20047;-59
2024/04/25 11:19:44;;;;;;;4.40;2.15;;;11.00;99.90;;;;;;5202625;27;20087;-59
2024/04/25 11:22:16;;;;;;;4.95;2.85;;;11.20;99.90;;;;;;5202548;27;20520;-57
2024/04/25 11:25:18;;;;;;;7.68;3.17;;;11.40;99.90;;;;;;5198204;27;20007;-62
2024/04/25 11:27:47;;;;;;;6.32;2.15;;;11.90;99.90;;;;;;5204221;27;20049;-63
2024/04/25 11:30:14;;;;;;;6.53;2.20;;;12.20;99.90;;;;;;5205499;27;20079;-62
2024/04/25 11:32:44;;;;;;;8.02;2.47;;;12.40;99.90;;;;;;5203869;27;20243;-62
2024/04/25 11:35:17;;;;;;;7.63;2.60;;;12.80;99.90;;;;;;5205432;27;20011;-62
2024/04/25 11:37:44;;;;;;;5.50;2.58;;;12.90;99.90;;;;;;5204823;27;20393;-63
2024/04/25 11:40:11;;;;;;;3.58;2.10;;;13.30;99.90;;;;;;5211566;27;20007;-63
2024/04/25 11:42:38;;;;;;;3.97;2.08;;;13.50;99.90;;;;;;5204179;27;20424;-63
2024/04/25 11:45:05;;;;;;;3.53;2.30;;;13.90;99.90;;;;;;5210364;27;20007;-63
2024/04/25 11:47:32;;;;;;;4.45;2.38;;;13.90;99.90;;;;;;5206078;27;20649;-63
2024/04/25 11:49:59;;;;;;;5.05;2.50;;;13.80;99.90;;;;;;5205844;27;20019;-63
2024/04/25 11:52:26;;;;;;;6.70;2.65;;;13.90;99.90;;;;;;5208549;27;20014;-62
2024/04/25 11:54:53;;;;;;;7.30;2.53;;;13.80;99.90;;;;;;5208873;27;20087;-61
2024/04/25 11:57:20;;;;;;;6.55;2.58;;;13.70;99.90;;;;;;5233614;27;20019;-62
2024/04/25 11:59:47;;;;;;;6.47;2.75;;;13.50;99.90;;;;;;5199179;27;20004;-63
2024/04/25 12:02:14;;;;;;;4.68;2.70;;;13.70;99.90;;;;;;5207181;27;20411;-62
2024/04/25 12:04:41;;;;;;;6.95;2.92;;;13.30;99.90;;;;;;5202041;27;20044;-61
2024/04/25 12:07:08;;;;;;;7.22;2.50;;;13.20;99.90;;;;;;5202288;27;20015;-63
2024/04/25 12:09:35;;;;;;;5.25;2.20;;;13.70;99.90;;;;;;5201148;27;20008;-62
2024/04/25 12:12:02;;;;;;;3.00;2.17;;;13.70;99.90;;;;;;5203264;27;20004;-62
2024/04/25 12:14:29;;;;;;;3.92;2.33;;;13.80;99.90;;;;;;5201122;27;20022;-62
2024/04/25 12:16:56;;;;;;;4.68;2.15;;;13.80;99.90;;;;;;5203487;27;20461;-62
2024/04/25 12:19:22;;;;;;;6.13;2.78;;;13.80;99.90;;;;;;5208969;27;20007;-62
2024/04/25 12:21:49;;;;;;;5.57;2.53;;;13.60;99.90;;;;;;5201491;27;20004;-62
2024/04/25 12:24:16;;;;;;;5.50;2.35;;;13.30;99.90;;;;;;5200071;27;20004;-62
2024/04/25 12:26:44;;;;;;;4.70;2.35;;;12.80;99.90;;;;;;5200368;27;20007;-62
2024/04/25 12:29:11;;;;;;;5.43;2.28;;;12.20;99.90;;;;;;5204066;27;20636;-61
2024/04/25 12:31:38;;;;;;;7.28;2.40;;;11.70;99.90;;;;;;5203809;27;20005;-63
2024/04/25 12:34:05;;;;;;;9.35;2.67;;;11.30;99.90;;;;;;5203690;27;20338;-62
2024/04/25 12:36:36;;;;;;;10.25;2.95;;;11.30;99.90;;;;;;5202663;27;20044;-62
2024/04/25 12:39:02;;;;;;;4.90;2.28;;;11.30;99.90;;;;;;5203447;27;20019;-59
2024/04/25 12:41:29;;;;;;;4.75;2.22;;;11.60;99.90;;;;;;5202543;27;20003;-61
2024/04/25 12:43:56;;;;;;;10.15;2.35;;;12.10;99.90;;;;;;5203008;27;20003;-63
2024/04/25 12:46:24;;;;;;;2.92;1.73;;;12.60;99.90;;;;;;5206448;27;20888;-61
2024/04/25 12:48:51;;;;;;;5.25;2.22;;;12.70;99.90;;;;;;5201653;27;20441;-62
2024/04/25 12:51:18;;;;;;;5.72;2.40;;;12.70;99.90;;;;;;5202237;27;20004;-61
2024/04/25 12:53:45;;;;;;;5.38;2.42;;;12.60;99.90;;;;;;5206860;27;20079;-62
2024/04/25 12:56:12;;;;;;;7.95;2.67;;;12.50;99.90;;;;;;5204273;27;20393;-62
2024/04/25 12:58:40;;;;;;;7.10;2.40;;;12.50;99.90;;;;;;5198956;27;20088;-62
2024/04/25 13:01:08;;;;;;;6.03;1.90;;;12.80;99.90;;;;;;5204911;27;20373;-63